sensor_id;sensor_type;location;lat;lon;timestamp;P1;durP1;ratioP1;P2;durP2;ratioP2
4353;SDS011;11018;51.258;6.806;2023-03-14T09:30:39;1.10;;;0.60;;
4353;SDS011;11018;51.258;6.806;2023-03-14T09:33:05;1.50;;;0.60;;
4353;SDS011;11018;51.258;6.806;2023-03-14T09:35:33;1.20;;;0.80;;
4353;SDS011;11018;51.258;6.806;2023-03-14T09:37:59;4.80;;;1.30;;
4353;SDS011;11018;51.258;6.806;2023-03-14T09:40:24;3.77;;;1.70;;
4353;SDS011;11018;51.258;6.806;2023-03-14T09:42:57;2.40;;;1.30;;
4353;SDS011;11018;51.258;6.806;2023-03-14T09:45:28;2.60;;;0.97;;
4353;SDS011;11018;51.258;6.806;2023-03-14T09:47:59;1.00;;;0.70;;
4353;SDS011;11018;51.258;6.806;2023-03-14T09:50:27;3.00;;;1.60;;
4353;SDS011;11018;51.258;6.806;2023-03-14T09:53:04;1.40;;;1.30;;
4353;SDS011;11018;51.258;6.806;2023-03-14T09:55:35;0.90;;;0.80;;
4353;SDS011;11018;51.258;6.806;2023-03-14T09:58:02;2.42;;;0.88;;
4353;SDS011;11018;51.258;6.806;2023-03-14T10:00:33;3.60;;;0.90;;
4353;SDS011;11018;51.258;6.806;2023-03-14T10:03:14;2.90;;;1.70;;
4353;SDS011;11018;51.258;6.806;2023-03-14T10:05:49;1.80;;;1.30;;
4353;SDS011;11018;51.258;6.806;2023-03-14T10:08:15;2.10;;;1.30;;
4353;SDS011;11018;51.258;6.806;2023-03-14T10:10:40;1.53;;;1.13;;
4353;SDS011;11018;51.258;6.806;2023-03-14T10:15:37;3.22;;;1.75;;
4353;SDS011;11018;51.258;6.806;2023-03-14T10:18:04;2.97;;;1.40;;
4353;SDS011;11018;51.258;6.806;2023-03-14T10:20:43;5.67;;;2.00;;
4353;SDS011;11018;51.258;6.806;2023-03-14T10:25:40;2.03;;;1.63;;
4353;SDS011;11018;51.258;6.806;2023-03-14T10:28:33;3.70;;;2.40;;
4353;SDS011;11018;51.258;6.806;2023-03-14T10:31:16;2.70;;;2.07;;
4353;SDS011;11018;51.258;6.806;2023-03-14T10:33:42;2.20;;;1.80;;
4353;SDS011;11018;51.258;6.806;2023-03-14T10:36:29;3.10;;;1.60;;
4353;SDS011;11018;51.258;6.806;2023-03-14T10:39:42;2.60;;;1.50;;
4353;SDS011;11018;51.258;6.806;2023-03-14T10:41:46;6.88;;;1.88;;
4353;SDS011;11018;51.258;6.806;2023-03-14T10:44:13;2.17;;;1.60;;
4353;SDS011;11018;51.258;6.806;2023-03-14T10:46:44;6.47;;;2.00;;
4353;SDS011;11018;51.258;6.806;2023-03-14T10:49:14;3.05;;;1.40;;
4353;SDS011;11018;51.258;6.806;2023-03-14T10:52:41;4.68;;;1.63;;
4353;SDS011;11018;51.258;6.806;2023-03-14T10:54:53;2.67;;;1.10;;
4353;SDS011;11018;51.258;6.806;2023-03-14T10:57:22;3.00;;;1.60;;
4353;SDS011;11018;51.258;6.806;2023-03-14T10:59:48;4.13;;;1.38;;
4353;SDS011;11018;51.258;6.806;2023-03-14T11:02:30;2.25;;;1.05;;
4353;SDS011;11018;51.258;6.806;2023-03-14T11:08:37;2.13;;;1.60;;
4353;SDS011;11018;51.258;6.806;2023-03-14T11:22:06;12.18;;;6.90;;
4353;SDS011;11018;51.258;6.806;2023-03-14T11:30:21;12.80;;;3.60;;
4353;SDS011;11018;51.258;6.806;2023-03-14T11:35:30;2.40;;;1.33;;
4353;SDS011;11018;51.258;6.806;2023-03-14T11:40:37;5.80;;;1.90;;
4353;SDS011;11018;51.258;6.806;2023-03-14T11:43:11;4.22;;;1.80;;
4353;SDS011;11018;51.258;6.806;2023-03-14T11:45:43;3.80;;;2.05;;
4353;SDS011;11018;51.258;6.806;2023-03-14T11:50:57;5.63;;;3.60;;
4353;SDS011;11018;51.258;6.806;2023-03-14T11:56:21;11.73;;;5.45;;
4353;SDS011;11018;51.258;6.806;2023-03-14T11:58:57;11.40;;;4.80;;
4353;SDS011;11018;51.258;6.806;2023-03-14T12:01:39;7.38;;;3.78;;
4353;SDS011;11018;51.258;6.806;2023-03-14T12:07:20;4.77;;;2.57;;
4353;SDS011;11018;51.258;6.806;2023-03-14T12:09:50;7.60;;;3.20;;
4353;SDS011;11018;51.258;6.806;2023-03-14T12:12:22;6.88;;;3.17;;
4353;SDS011;11018;51.258;6.806;2023-03-14T12:14:57;1.77;;;1.60;;
4353;SDS011;11018;51.258;6.806;2023-03-14T12:17:41;7.00;;;2.40;;
4353;SDS011;11018;51.258;6.806;2023-03-14T12:22:49;4.20;;;2.03;;
4353;SDS011;11018;51.258;6.806;2023-03-14T12:25:21;5.20;;;2.05;;
4353;SDS011;11018;51.258;6.806;2023-03-14T12:35:42;5.43;;;2.50;;
4353;SDS011;11018;51.258;6.806;2023-03-14T12:41:04;5.10;;;1.90;;
4353;SDS011;11018;51.258;6.806;2023-03-14T12:43:39;9.98;;;1.80;;
4353;SDS011;11018;51.258;6.806;2023-03-14T12:48:41;4.18;;;1.60;;
4353;SDS011;11018;51.258;6.806;2023-03-14T12:51:13;6.20;;;1.47;;
4353;SDS011;11018;51.258;6.806;2023-03-14T12:54:02;8.48;;;1.65;;
4353;SDS011;11018;51.258;6.806;2023-03-14T12:59:57;6.90;;;1.50;;
4353;SDS011;11018;51.258;6.806;2023-03-14T13:04:54;7.13;;;2.10;;
4353;SDS011;11018;51.258;6.806;2023-03-14T13:12:39;9.80;;;2.83;;
4353;SDS011;11018;51.258;6.806;2023-03-14T13:15:17;12.05;;;3.35;;
4353;SDS011;11018;51.258;6.806;2023-03-14T13:17:52;10.80;;;3.33;;
4353;SDS011;11018;51.258;6.806;2023-03-14T13:20:22;12.48;;;3.53;;
4353;SDS011;11018;51.258;6.806;2023-03-14T13:22:54;12.63;;;2.88;;
4353;SDS011;11018;51.258;6.806;2023-03-14T13:25:20;16.10;;;3.70;;
4353;SDS011;11018;51.258;6.806;2023-03-14T13:27:47;20.43;;;3.50;;
4353;SDS011;11018;51.258;6.806;2023-03-14T13:30:18;21.77;;;3.20;;
4353;SDS011;11018;51.258;6.806;2023-03-14T13:33:02;17.02;;;2.80;;
4353;SDS011;11018;51.258;6.806;2023-03-14T13:35:29;21.30;;;3.35;;
4353;SDS011;11018;51.258;6.806;2023-03-14T13:38:30;16.73;;;3.30;;
4353;SDS011;11018;51.258;6.806;2023-03-14T13:41:03;18.17;;;2.95;;
4353;SDS011;11018;51.258;6.806;2023-03-14T13:43:32;25.35;;;3.90;;
4353;SDS011;11018;51.258;6.806;2023-03-14T13:46:11;20.75;;;4.88;;
4353;SDS011;11018;51.258;6.806;2023-03-14T13:48:45;19.38;;;3.30;;
4353;SDS011;11018;51.258;6.806;2023-03-14T13:51:13;27.10;;;4.30;;
4353;SDS011;11018;51.258;6.806;2023-03-14T13:53:45;21.53;;;3.50;;
4353;SDS011;11018;51.258;6.806;2023-03-14T13:56:12;19.75;;;3.75;;
4353;SDS011;11018;51.258;6.806;2023-03-14T13:58:39;18.55;;;3.22;;
4353;SDS011;11018;51.258;6.806;2023-03-14T14:03:45;21.37;;;3.70;;
4353;SDS011;11018;51.258;6.806;2023-03-14T14:08:58;19.00;;;4.55;;
4353;SDS011;11018;51.258;6.806;2023-03-14T14:11:32;17.40;;;4.20;;
4353;SDS011;11018;51.258;6.806;2023-03-14T14:14:01;21.30;;;4.00;;
4353;SDS011;11018;51.258;6.806;2023-03-14T14:16:28;24.60;;;4.13;;
4353;SDS011;11018;51.258;6.806;2023-03-14T14:18:55;16.33;;;3.50;;
4353;SDS011;11018;51.258;6.806;2023-03-14T14:21:22;19.02;;;3.75;;
4353;SDS011;11018;51.258;6.806;2023-03-14T14:23:48;26.88;;;4.68;;
4353;SDS011;11018;51.258;6.806;2023-03-14T14:26:16;26.50;;;5.20;;
4353;SDS011;11018;51.258;6.806;2023-03-14T14:28:43;24.95;;;4.55;;
4353;SDS011;11018;51.258;6.806;2023-03-14T14:34:01;23.50;;;3.10;;
4353;SDS011;11018;51.258;6.806;2023-03-14T14:36:32;24.00;;;3.97;;
4353;SDS011;11018;51.258;6.806;2023-03-14T14:41:41;21.00;;;3.70;;
4353;SDS011;11018;51.258;6.806;2023-03-14T14:44:10;6.60;;;1.80;;
4353;SDS011;11018;51.258;6.806;2023-03-14T14:46:37;14.32;;;2.25;;
4353;SDS011;11018;51.258;6.806;2023-03-14T14:49:09;14.63;;;3.13;;
4353;SDS011;11018;51.258;6.806;2023-03-14T14:51:51;14.70;;;3.03;;
4353;SDS011;11018;51.258;6.806;2023-03-14T14:54:33;13.60;;;2.53;;
4353;SDS011;11018;51.258;6.806;2023-03-14T14:57:15;10.13;;;2.30;;
4353;SDS011;11018;51.258;6.806;2023-03-14T14:59:43;9.98;;;2.45;;
4353;SDS011;11018;51.258;6.806;2023-03-14T15:02:23;5.75;;;1.55;;
4353;SDS011;11018;51.258;6.806;2023-03-14T15:05:29;9.00;;;1.60;;
4353;SDS011;11018;51.258;6.806;2023-03-14T15:07:59;8.77;;;1.83;;
4353;SDS011;11018;51.258;6.806;2023-03-14T15:10:25;12.70;;;2.30;;
4353;SDS011;11018;51.258;6.806;2023-03-14T15:12:50;13.15;;;1.92;;
4353;SDS011;11018;51.258;6.806;2023-03-14T15:15:16;9.25;;;1.80;;
4353;SDS011;11018;51.258;6.806;2023-03-14T15:17:42;4.65;;;1.20;;
4353;SDS011;11018;51.258;6.806;2023-03-14T15:20:16;8.70;;;1.85;;
4353;SDS011;11018;51.258;6.806;2023-03-14T15:22:43;6.45;;;1.98;;
4353;SDS011;11018;51.258;6.806;2023-03-14T15:25:09;12.10;;;2.10;;
4353;SDS011;11018;51.258;6.806;2023-03-14T15:27:35;5.03;;;1.50;;
4353;SDS011;11018;51.258;6.806;2023-03-14T15:30:01;9.80;;;2.10;;
4353;SDS011;11018;51.258;6.806;2023-03-14T15:32:27;7.65;;;1.95;;
4353;SDS011;11018;51.258;6.806;2023-03-14T15:34:56;11.87;;;2.30;;
4353;SDS011;11018;51.258;6.806;2023-03-14T15:37:21;10.93;;;2.20;;
4353;SDS011;11018;51.258;6.806;2023-03-14T15:39:47;8.07;;;1.60;;
4353;SDS011;11018;51.258;6.806;2023-03-14T15:42:13;7.50;;;1.70;;
4353;SDS011;11018;51.258;6.806;2023-03-14T15:44:39;7.50;;;1.80;;
4353;SDS011;11018;51.258;6.806;2023-03-14T15:47:04;9.27;;;1.70;;
4353;SDS011;11018;51.258;6.806;2023-03-14T15:49:31;13.55;;;2.30;;
4353;SDS011;11018;51.258;6.806;2023-03-14T15:51:57;7.07;;;1.30;;
4353;SDS011;11018;51.258;6.806;2023-03-14T15:54:23;7.72;;;1.70;;
4353;SDS011;11018;51.258;6.806;2023-03-14T15:56:53;6.70;;;1.48;;
4353;SDS011;11018;51.258;6.806;2023-03-14T15:59:19;12.88;;;2.30;;
4353;SDS011;11018;51.258;6.806;2023-03-14T16:01:45;10.90;;;2.10;;
4353;SDS011;11018;51.258;6.806;2023-03-14T16:04:12;10.40;;;2.20;;
4353;SDS011;11018;51.258;6.806;2023-03-14T16:06:38;6.82;;;2.10;;
4353;SDS011;11018;51.258;6.806;2023-03-14T16:09:04;8.65;;;2.20;;
4353;SDS011;11018;51.258;6.806;2023-03-14T16:11:30;6.55;;;2.03;;
4353;SDS011;11018;51.258;6.806;2023-03-14T16:13:56;11.40;;;1.90;;
4353;SDS011;11018;51.258;6.806;2023-03-14T16:16:21;8.47;;;2.37;;
4353;SDS011;11018;51.258;6.806;2023-03-14T16:18:47;9.07;;;1.80;;
4353;SDS011;11018;51.258;6.806;2023-03-14T16:21:16;6.47;;;1.40;;
4353;SDS011;11018;51.258;6.806;2023-03-14T16:23:43;9.38;;;1.80;;
4353;SDS011;11018;51.258;6.806;2023-03-14T16:26:10;7.00;;;1.50;;
4353;SDS011;11018;51.258;6.806;2023-03-14T16:28:37;6.57;;;1.30;;
4353;SDS011;11018;51.258;6.806;2023-03-14T16:31:04;11.55;;;2.00;;
4353;SDS011;11018;51.258;6.806;2023-03-14T16:33:35;12.23;;;2.20;;
4353;SDS011;11018;51.258;6.806;2023-03-14T16:36:02;8.98;;;1.10;;
4353;SDS011;11018;51.258;6.806;2023-03-14T16:38:36;11.07;;;1.83;;
4353;SDS011;11018;51.258;6.806;2023-03-14T16:41:06;7.13;;;1.52;;
4353;SDS011;11018;51.258;6.806;2023-03-14T16:43:40;10.98;;;2.50;;
4353;SDS011;11018;51.258;6.806;2023-03-14T16:46:07;7.90;;;1.50;;
4353;SDS011;11018;51.258;6.806;2023-03-14T16:48:35;7.35;;;1.60;;
4353;SDS011;11018;51.258;6.806;2023-03-14T16:51:02;8.60;;;1.98;;
4353;SDS011;11018;51.258;6.806;2023-03-14T16:53:28;7.05;;;1.35;;
4353;SDS011;11018;51.258;6.806;2023-03-14T16:55:54;4.20;;;1.50;;
4353;SDS011;11018;51.258;6.806;2023-03-14T16:58:20;4.33;;;1.83;;
4353;SDS011;11018;51.258;6.806;2023-03-14T17:00:46;7.05;;;1.88;;
4353;SDS011;11018;51.258;6.806;2023-03-14T17:03:12;5.57;;;1.45;;
4353;SDS011;11018;51.258;6.806;2023-03-14T17:05:46;11.10;;;1.95;;
4353;SDS011;11018;51.258;6.806;2023-03-14T17:08:12;5.88;;;1.65;;
4353;SDS011;11018;51.258;6.806;2023-03-14T17:10:38;19.38;;;1.77;;
4353;SDS011;11018;51.258;6.806;2023-03-14T17:13:04;8.32;;;2.03;;
4353;SDS011;11018;51.258;6.806;2023-03-14T17:15:29;6.70;;;1.90;;
4353;SDS011;11018;51.258;6.806;2023-03-14T17:17:55;11.90;;;2.40;;
4353;SDS011;11018;51.258;6.806;2023-03-14T17:20:20;9.80;;;2.00;;
4353;SDS011;11018;51.258;6.806;2023-03-14T17:22:46;7.27;;;1.40;;
4353;SDS011;11018;51.258;6.806;2023-03-14T17:25:11;7.93;;;1.70;;
4353;SDS011;11018;51.258;6.806;2023-03-14T17:27:38;6.45;;;1.63;;
4353;SDS011;11018;51.258;6.806;2023-03-14T17:30:03;8.95;;;1.95;;
4353;SDS011;11018;51.258;6.806;2023-03-14T17:32:29;11.85;;;2.10;;
4353;SDS011;11018;51.258;6.806;2023-03-14T17:34:55;5.53;;;1.47;;
4353;SDS011;11018;51.258;6.806;2023-03-14T17:37:21;10.48;;;1.63;;
4353;SDS011;11018;51.258;6.806;2023-03-14T17:39:46;9.13;;;1.67;;
4353;SDS011;11018;51.258;6.806;2023-03-14T17:42:12;5.10;;;1.70;;
4353;SDS011;11018;51.258;6.806;2023-03-14T17:44:38;8.60;;;2.00;;
4353;SDS011;11018;51.258;6.806;2023-03-14T17:47:03;10.60;;;2.70;;
4353;SDS011;11018;51.258;6.806;2023-03-14T17:49:29;8.83;;;2.23;;
4353;SDS011;11018;51.258;6.806;2023-03-14T17:51:54;9.60;;;2.00;;
4353;SDS011;11018;51.258;6.806;2023-03-14T17:54:20;6.77;;;1.50;;
4353;SDS011;11018;51.258;6.806;2023-03-14T17:56:45;9.50;;;1.90;;
4353;SDS011;11018;51.258;6.806;2023-03-14T17:59:13;9.27;;;2.00;;
4353;SDS011;11018;51.258;6.806;2023-03-14T18:01:39;10.65;;;2.50;;
4353;SDS011;11018;51.258;6.806;2023-03-14T18:04:12;7.80;;;1.83;;
4353;SDS011;11018;51.258;6.806;2023-03-14T18:06:38;6.60;;;1.90;;
4353;SDS011;11018;51.258;6.806;2023-03-14T18:09:04;10.73;;;2.40;;
4353;SDS011;11018;51.258;6.806;2023-03-14T18:11:30;11.47;;;2.90;;
4353;SDS011;11018;51.258;6.806;2023-03-14T18:13:55;12.45;;;2.60;;
4353;SDS011;11018;51.258;6.806;2023-03-14T18:16:21;8.43;;;2.42;;
4353;SDS011;11018;51.258;6.806;2023-03-14T18:18:47;9.05;;;2.10;;
4353;SDS011;11018;51.258;6.806;2023-03-14T18:21:15;13.65;;;2.70;;
4353;SDS011;11018;51.258;6.806;2023-03-14T18:23:41;8.82;;;2.55;;
4353;SDS011;11018;51.258;6.806;2023-03-14T18:26:07;11.50;;;2.60;;
4353;SDS011;11018;51.258;6.806;2023-03-14T18:28:33;12.32;;;3.00;;
4353;SDS011;11018;51.258;6.806;2023-03-14T18:31:04;16.47;;;3.13;;
4353;SDS011;11018;51.258;6.806;2023-03-14T18:33:32;9.50;;;3.20;;
4353;SDS011;11018;51.258;6.806;2023-03-14T18:36:02;11.13;;;2.35;;
4353;SDS011;11018;51.258;6.806;2023-03-14T18:38:29;16.17;;;2.53;;
4353;SDS011;11018;51.258;6.806;2023-03-14T18:40:55;11.85;;;1.83;;
4353;SDS011;11018;51.258;6.806;2023-03-14T18:43:21;11.20;;;2.80;;
4353;SDS011;11018;51.258;6.806;2023-03-14T18:45:46;11.77;;;2.27;;
4353;SDS011;11018;51.258;6.806;2023-03-14T18:48:12;6.80;;;1.60;;
4353;SDS011;11018;51.258;6.806;2023-03-14T18:50:37;8.50;;;2.60;;
4353;SDS011;11018;51.258;6.806;2023-03-14T18:53:03;11.53;;;2.10;;
4353;SDS011;11018;51.258;6.806;2023-03-14T18:55:28;8.00;;;1.90;;
4353;SDS011;11018;51.258;6.806;2023-03-14T18:57:54;7.93;;;1.80;;
4353;SDS011;11018;51.258;6.806;2023-03-14T19:00:20;8.38;;;1.88;;
4353;SDS011;11018;51.258;6.806;2023-03-14T19:02:46;8.50;;;1.87;;
4353;SDS011;11018;51.258;6.806;2023-03-14T19:05:11;8.27;;;1.80;;
4353;SDS011;11018;51.258;6.806;2023-03-14T19:07:37;9.80;;;2.08;;
4353;SDS011;11018;51.258;6.806;2023-03-14T19:10:03;12.43;;;1.88;;
4353;SDS011;11018;51.258;6.806;2023-03-14T19:12:29;12.93;;;2.72;;
4353;SDS011;11018;51.258;6.806;2023-03-14T19:14:55;7.53;;;2.20;;
4353;SDS011;11018;51.258;6.806;2023-03-14T19:17:20;10.60;;;2.10;;
4353;SDS011;11018;51.258;6.806;2023-03-14T19:19:46;7.72;;;2.22;;
4353;SDS011;11018;51.258;6.806;2023-03-14T19:22:12;11.25;;;2.30;;
4353;SDS011;11018;51.258;6.806;2023-03-14T19:24:38;9.13;;;2.10;;
4353;SDS011;11018;51.258;6.806;2023-03-14T19:27:03;7.43;;;2.53;;
4353;SDS011;11018;51.258;6.806;2023-03-14T19:29:29;13.50;;;3.22;;
4353;SDS011;11018;51.258;6.806;2023-03-14T19:31:55;11.05;;;2.63;;
4353;SDS011;11018;51.258;6.806;2023-03-14T19:34:21;12.60;;;2.90;;
4353;SDS011;11018;51.258;6.806;2023-03-14T19:36:47;9.90;;;2.30;;
4353;SDS011;11018;51.258;6.806;2023-03-14T19:39:12;10.90;;;2.80;;
4353;SDS011;11018;51.258;6.806;2023-03-14T19:41:38;14.00;;;2.63;;
4353;SDS011;11018;51.258;6.806;2023-03-14T19:44:04;14.27;;;2.70;;
4353;SDS011;11018;51.258;6.806;2023-03-14T19:46:29;16.48;;;3.90;;
4353;SDS011;11018;51.258;6.806;2023-03-14T19:48:57;18.45;;;3.35;;
4353;SDS011;11018;51.258;6.806;2023-03-14T19:51:22;8.73;;;2.42;;
4353;SDS011;11018;51.258;6.806;2023-03-14T19:53:48;9.65;;;2.80;;
4353;SDS011;11018;51.258;6.806;2023-03-14T19:56:14;11.98;;;3.30;;
4353;SDS011;11018;51.258;6.806;2023-03-14T19:58:40;17.25;;;3.10;;
4353;SDS011;11018;51.258;6.806;2023-03-14T20:01:06;15.98;;;3.20;;
4353;SDS011;11018;51.258;6.806;2023-03-14T20:03:34;13.27;;;3.23;;
4353;SDS011;11018;51.258;6.806;2023-03-14T20:06:06;14.68;;;3.80;;
4353;SDS011;11018;51.258;6.806;2023-03-14T20:08:33;18.90;;;3.80;;
4353;SDS011;11018;51.258;6.806;2023-03-14T20:11:02;18.55;;;3.33;;
4353;SDS011;11018;51.258;6.806;2023-03-14T20:13:28;14.67;;;3.00;;
4353;SDS011;11018;51.258;6.806;2023-03-14T20:15:54;11.17;;;2.73;;
4353;SDS011;11018;51.258;6.806;2023-03-14T20:18:19;14.32;;;3.08;;
4353;SDS011;11018;51.258;6.806;2023-03-14T20:20:47;11.75;;;3.03;;
4353;SDS011;11018;51.258;6.806;2023-03-14T20:23:12;12.05;;;2.80;;
4353;SDS011;11018;51.258;6.806;2023-03-14T20:25:39;16.52;;;3.30;;
4353;SDS011;11018;51.258;6.806;2023-03-14T20:28:05;14.63;;;2.47;;
4353;SDS011;11018;51.258;6.806;2023-03-14T20:30:31;9.60;;;2.65;;
4353;SDS011;11018;51.258;6.806;2023-03-14T20:32:57;11.68;;;2.83;;
4353;SDS011;11018;51.258;6.806;2023-03-14T20:35:23;12.82;;;2.50;;
4353;SDS011;11018;51.258;6.806;2023-03-14T20:37:49;13.30;;;2.70;;
4353;SDS011;11018;51.258;6.806;2023-03-14T20:40:17;12.95;;;2.60;;
4353;SDS011;11018;51.258;6.806;2023-03-14T20:42:44;14.33;;;2.90;;
4353;SDS011;11018;51.258;6.806;2023-03-14T20:45:09;13.90;;;4.05;;
4353;SDS011;11018;51.258;6.806;2023-03-14T20:47:35;16.52;;;3.35;;
4353;SDS011;11018;51.258;6.806;2023-03-14T20:50:01;12.10;;;3.00;;
4353;SDS011;11018;51.258;6.806;2023-03-14T20:52:27;21.98;;;3.50;;
4353;SDS011;11018;51.258;6.806;2023-03-14T20:54:53;12.30;;;3.40;;
4353;SDS011;11018;51.258;6.806;2023-03-14T20:57:19;13.85;;;2.90;;
4353;SDS011;11018;51.258;6.806;2023-03-14T20:59:45;7.93;;;2.90;;
4353;SDS011;11018;51.258;6.806;2023-03-14T21:02:10;16.63;;;3.30;;
4353;SDS011;11018;51.258;6.806;2023-03-14T21:04:36;15.07;;;3.60;;
4353;SDS011;11018;51.258;6.806;2023-03-14T21:07:02;13.32;;;2.80;;
4353;SDS011;11018;51.258;6.806;2023-03-14T21:09:28;16.73;;;3.33;;
4353;SDS011;11018;51.258;6.806;2023-03-14T21:11:53;12.63;;;3.37;;
4353;SDS011;11018;51.258;6.806;2023-03-14T21:14:19;16.23;;;3.97;;
4353;SDS011;11018;51.258;6.806;2023-03-14T21:16:46;17.95;;;3.50;;
4353;SDS011;11018;51.258;6.806;2023-03-14T21:19:13;14.40;;;3.47;;
4353;SDS011;11018;51.258;6.806;2023-03-14T21:21:39;11.02;;;3.30;;
4353;SDS011;11018;51.258;6.806;2023-03-14T21:24:06;10.60;;;3.70;;
4353;SDS011;11018;51.258;6.806;2023-03-14T21:26:32;18.00;;;3.22;;
4353;SDS011;11018;51.258;6.806;2023-03-14T21:28:58;18.17;;;3.78;;
4353;SDS011;11018;51.258;6.806;2023-03-14T21:31:27;15.68;;;4.30;;
4353;SDS011;11018;51.258;6.806;2023-03-14T21:33:54;7.43;;;2.90;;
4353;SDS011;11018;51.258;6.806;2023-03-14T21:36:19;17.83;;;2.97;;
4353;SDS011;11018;51.258;6.806;2023-03-14T21:38:45;13.30;;;3.38;;
4353;SDS011;11018;51.258;6.806;2023-03-14T21:41:11;22.43;;;3.27;;
4353;SDS011;11018;51.258;6.806;2023-03-14T21:43:39;12.48;;;2.80;;
4353;SDS011;11018;51.258;6.806;2023-03-14T21:46:05;13.95;;;3.17;;
4353;SDS011;11018;51.258;6.806;2023-03-14T21:48:30;26.05;;;3.65;;
4353;SDS011;11018;51.258;6.806;2023-03-14T21:50:57;8.68;;;3.33;;
4353;SDS011;11018;51.258;6.806;2023-03-14T21:53:23;16.13;;;2.80;;
4353;SDS011;11018;51.258;6.806;2023-03-14T21:55:54;10.73;;;3.47;;
4353;SDS011;11018;51.258;6.806;2023-03-14T21:58:20;13.43;;;3.63;;
4353;SDS011;11018;51.258;6.806;2023-03-14T22:00:45;10.20;;;3.27;;
4353;SDS011;11018;51.258;6.806;2023-03-14T22:03:18;14.40;;;3.05;;
4353;SDS011;11018;51.258;6.806;2023-03-14T22:05:47;10.32;;;2.53;;
4353;SDS011;11018;51.258;6.806;2023-03-14T22:08:13;13.98;;;3.17;;
4353;SDS011;11018;51.258;6.806;2023-03-14T22:10:47;19.48;;;3.60;;
4353;SDS011;11018;51.258;6.806;2023-03-14T22:13:14;14.85;;;3.60;;
4353;SDS011;11018;51.258;6.806;2023-03-14T22:15:43;18.33;;;3.70;;
4353;SDS011;11018;51.258;6.806;2023-03-14T22:18:10;17.67;;;3.25;;
4353;SDS011;11018;51.258;6.806;2023-03-14T22:20:35;18.00;;;3.60;;
4353;SDS011;11018;51.258;6.806;2023-03-14T22:23:01;12.50;;;3.80;;
4353;SDS011;11018;51.258;6.806;2023-03-14T22:25:27;12.45;;;3.60;;
4353;SDS011;11018;51.258;6.806;2023-03-14T22:27:52;13.10;;;3.30;;
4353;SDS011;11018;51.258;6.806;2023-03-14T22:30:18;14.40;;;2.93;;
4353;SDS011;11018;51.258;6.806;2023-03-14T22:32:44;14.45;;;3.38;;
4353;SDS011;11018;51.258;6.806;2023-03-14T22:35:10;21.23;;;3.57;;
4353;SDS011;11018;51.258;6.806;2023-03-14T22:37:36;10.90;;;3.75;;
4353;SDS011;11018;51.258;6.806;2023-03-14T22:40:01;17.98;;;3.60;;
4353;SDS011;11018;51.258;6.806;2023-03-14T22:42:27;23.27;;;4.03;;
4353;SDS011;11018;51.258;6.806;2023-03-14T22:44:53;23.47;;;3.70;;
4353;SDS011;11018;51.258;6.806;2023-03-14T22:47:19;15.10;;;3.88;;
4353;SDS011;11018;51.258;6.806;2023-03-14T22:49:44;14.43;;;3.45;;
4353;SDS011;11018;51.258;6.806;2023-03-14T22:52:10;14.02;;;3.47;;
4353;SDS011;11018;51.258;6.806;2023-03-14T22:54:36;15.13;;;3.50;;
4353;SDS011;11018;51.258;6.806;2023-03-14T22:57:01;11.40;;;3.33;;
4353;SDS011;11018;51.258;6.806;2023-03-14T22:59:27;13.38;;;3.60;;
4353;SDS011;11018;51.258;6.806;2023-03-14T23:01:53;14.32;;;3.78;;
4353;SDS011;11018;51.258;6.806;2023-03-14T23:04:18;16.48;;;3.95;;
4353;SDS011;11018;51.258;6.806;2023-03-14T23:06:44;16.70;;;3.75;;
4353;SDS011;11018;51.258;6.806;2023-03-14T23:09:09;13.43;;;4.07;;
4353;SDS011;11018;51.258;6.806;2023-03-14T23:11:36;21.50;;;3.47;;
4353;SDS011;11018;51.258;6.806;2023-03-14T23:14:03;15.85;;;3.70;;
4353;SDS011;11018;51.258;6.806;2023-03-14T23:16:28;22.00;;;4.20;;
4353;SDS011;11018;51.258;6.806;2023-03-14T23:18:54;19.48;;;4.10;;
4353;SDS011;11018;51.258;6.806;2023-03-14T23:21:20;15.15;;;3.58;;
4353;SDS011;11018;51.258;6.806;2023-03-14T23:23:49;13.45;;;4.20;;
4353;SDS011;11018;51.258;6.806;2023-03-14T23:26:16;18.00;;;4.10;;
4353;SDS011;11018;51.258;6.806;2023-03-14T23:28:46;14.63;;;4.00;;
4353;SDS011;11018;51.258;6.806;2023-03-14T23:31:12;15.77;;;3.85;;
4353;SDS011;11018;51.258;6.806;2023-03-14T23:33:38;14.68;;;3.50;;
4353;SDS011;11018;51.258;6.806;2023-03-14T23:36:04;15.60;;;4.20;;
4353;SDS011;11018;51.258;6.806;2023-03-14T23:38:31;15.13;;;3.90;;
4353;SDS011;11018;51.258;6.806;2023-03-14T23:40:58;10.77;;;3.60;;
4353;SDS011;11018;51.258;6.806;2023-03-14T23:43:25;13.33;;;4.33;;
4353;SDS011;11018;51.258;6.806;2023-03-14T23:45:54;10.15;;;4.00;;
4353;SDS011;11018;51.258;6.806;2023-03-14T23:48:25;15.45;;;3.90;;
4353;SDS011;11018;51.258;6.806;2023-03-14T23:50:53;15.20;;;4.32;;
4353;SDS011;11018;51.258;6.806;2023-03-14T23:53:23;13.43;;;4.00;;
4353;SDS011;11018;51.258;6.806;2023-03-14T23:55:50;12.02;;;3.97;;
4353;SDS011;11018;51.258;6.806;2023-03-14T23:58:15;16.38;;;5.07;;
